Time;durP1;ratioP1;P1;durP2;ratioP2;P2;SDS_P1;SDS_P2;PMS_P1;PMS_P2;Temp;Humidity;BMP_temperature;BMP_pressure;BME280_temperature;BME280_humidity;BME280_pressure;Samples;Min_cycle;Max_cycle;Signal;HPM_P1;HPM_P2
2023/06/07 00:01:08;;;;;;;24.43;22.23;;;19.40;1.00;;;;;;5043784;28;20189;-56
2023/06/07 00:03:36;;;;;;;23.17;21.27;;;19.40;1.00;;;;;;5044310;28;20537;-56
2023/06/07 00:06:01;;;;;;;27.87;25.37;;;19.40;1.00;;;;;;5045623;28;20466;-55
2023/06/07 00:08:28;;;;;;;26.30;24.03;;;19.40;1.00;;;;;;5045918;28;20467;-55
2023/06/07 00:10:55;;;;;;;27.73;25.23;;;19.40;1.00;;;;;;5042610;28;20203;-56
2023/06/07 00:13:20;;;;;;;27.70;25.03;;;19.40;1.00;;;;;;5048929;28;21000;-54
2023/06/07 00:15:46;;;;;;;28.93;26.23;;;19.30;1.00;;;;;;5049629;28;20518;-55
2023/06/07 00:18:11;;;;;;;27.47;24.87;;;19.20;1.00;;;;;;5049138;28;20291;-55
2023/06/07 00:20:37;;;;;;;27.97;25.37;;;19.10;1.00;;;;;;5047475;28;20185;-57
2023/06/07 00:23:04;;;;;;;27.13;24.83;;;19.10;1.00;;;;;;5041952;28;20263;-55
2023/06/07 00:25:30;;;;;;;29.60;27.00;;;19.10;1.00;;;;;;5047707;28;20224;-56
2023/06/07 00:27:56;;;;;;;31.77;28.83;;;19.00;18.00;;;;;;5046053;28;20944;-55
2023/06/07 00:30:21;;;;;;;29.17;26.30;;;19.10;22.90;;;;;;5042016;28;20481;-55
2023/06/07 00:32:47;;;;;;;25.40;23.00;;;19.10;15.70;;;;;;5038471;28;20177;-55
2023/06/07 00:35:13;;;;;;;27.53;24.80;;;19.10;14.80;;;;;;5045169;28;20784;-55
2023/06/07 00:37:39;;;;;;;25.73;23.57;;;19.10;12.20;;;;;;5043610;28;20188;-55
2023/06/07 00:40:05;;;;;;;27.23;24.83;;;19.00;18.10;;;;;;5042547;28;20543;-54
2023/06/07 00:42:34;;;;;;;26.33;23.93;;;19.00;13.50;;;;;;5048054;28;20662;-56
2023/06/07 00:45:00;;;;;;;27.67;25.17;;;19.00;18.00;;;;;;5040333;28;20452;-55
2023/06/07 00:47:26;;;;;;;25.77;23.53;;;19.00;17.90;;;;;;5045406;28;20454;-56
2023/06/07 00:49:53;;;;;;;28.03;25.60;;;19.00;19.40;;;;;;5043694;28;20243;-54
2023/06/07 00:52:20;;;;;;;25.60;23.40;;;19.10;18.00;;;;;;5043711;28;20551;-56
2023/06/07 00:54:47;;;;;;;27.10;24.67;;;19.00;15.20;;;;;;5046243;28;20443;-56
2023/06/07 00:57:15;;;;;;;27.60;24.90;;;18.90;17.90;;;;;;5044441;28;20450;-55
2023/06/07 00:59:41;;;;;;;25.63;23.30;;;18.90;25.70;;;;;;5042718;28;20502;-55
2023/06/07 01:02:07;;;;;;;28.40;25.83;;;18.80;48.90;;;;;;5045274;28;20490;-56
2023/06/07 01:04:34;;;;;;;26.37;23.90;;;18.70;66.60;;;;;;5044349;28;20276;-56
2023/06/07 01:07:02;;;;;;;29.13;26.00;;;18.80;84.50;;;;;;5043354;28;20458;-55
2023/06/07 01:09:29;;;;;;;25.60;23.17;;;18.80;97.50;;;;;;5044815;28;20474;-56
2023/06/07 01:11:56;;;;;;;25.33;23.13;;;18.80;97.80;;;;;;5045400;28;20484;-56
2023/06/07 01:14:23;;;;;;;25.53;23.23;;;18.70;99.70;;;;;;5046211;28;20641;-56
2023/06/07 01:16:51;;;;;;;25.67;23.33;;;18.70;99.90;;;;;;5044369;28;20454;-55
2023/06/07 01:19:21;;;;;;;26.57;24.00;;;18.60;99.90;;;;;;5045185;28;20458;-56
2023/06/07 01:21:51;;;;;;;26.70;24.17;;;18.60;99.90;;;;;;5044447;28;20463;-56
2023/06/07 01:24:18;;;;;;;26.87;24.37;;;18.60;99.90;;;;;;5043574;28;20482;-55
2023/06/07 01:26:52;;;;;;;26.70;24.17;;;18.70;99.90;;;;;;5047420;28;20530;-55
2023/06/07 01:29:17;;;;;;;25.73;23.43;;;18.70;99.90;;;;;;5044396;28;20498;-57
2023/06/07 01:31:44;;;;;;;26.70;24.30;;;18.60;99.90;;;;;;5047391;28;21943;-54
2023/06/07 01:34:12;;;;;;;27.47;25.13;;;18.70;99.90;;;;;;5044910;28;20191;-55
2023/06/07 01:36:40;;;;;;;30.90;28.10;;;18.80;99.90;;;;;;5044090;28;20447;-55
2023/06/07 01:39:07;;;;;;;33.20;30.30;;;18.90;99.90;;;;;;5045876;28;20539;-57
2023/06/07 01:41:34;;;;;;;31.10;28.27;;;18.90;99.90;;;;;;5041005;28;20782;-56
2023/06/07 01:44:00;;;;;;;29.17;26.67;;;18.90;99.90;;;;;;5045827;28;20447;-56
2023/06/07 01:46:27;;;;;;;28.83;26.20;;;18.80;99.90;;;;;;5043060;28;20462;-55
2023/06/07 01:48:53;;;;;;;30.30;27.60;;;18.60;99.90;;;;;;5039445;28;20205;-55
2023/06/07 01:51:19;;;;;;;29.87;27.17;;;18.60;99.90;;;;;;5044266;28;20907;-56
2023/06/07 01:53:47;;;;;;;31.67;28.67;;;18.60;99.90;;;;;;5049004;28;20447;-56
2023/06/07 01:56:39;;;;;;;29.97;27.13;;;18.50;99.90;;;;;;5045422;28;20439;-56
2023/06/07 01:59:28;;;;;;;29.30;26.70;;;18.50;99.90;;;;;;5047162;28;20474;-55
2023/06/07 02:02:12;;;;;;;34.10;30.57;;;18.40;99.90;;;;;;5046503;28;20477;-55
2023/06/07 02:04:44;;;;;;;35.07;31.70;;;18.40;99.90;;;;;;5047543;28;20446;-56
2023/06/07 02:07:22;;;;;;;33.13;30.07;;;18.30;99.90;;;;;;5043753;28;20693;-56
2023/06/07 02:09:49;;;;;;;33.83;30.73;;;18.30;99.90;;;;;;5050707;28;20748;-56
2023/06/07 02:12:16;;;;;;;32.37;29.43;;;18.30;99.90;;;;;;5046985;28;20613;-55
2023/06/07 02:14:42;;;;;;;33.63;30.63;;;18.20;99.90;;;;;;5044994;28;20791;-55
2023/06/07 02:17:08;;;;;;;33.63;30.30;;;18.30;99.90;;;;;;5048331;28;20858;-55
2023/06/07 02:19:35;;;;;;;35.10;31.57;;;18.30;99.90;;;;;;5045305;28;20469;-55
2023/06/07 02:22:01;;;;;;;33.23;30.23;;;18.20;99.90;;;;;;5047583;28;21039;-56
2023/06/07 02:24:27;;;;;;;33.93;30.93;;;18.30;99.90;;;;;;5048893;28;20443;-55
2023/06/07 02:26:54;;;;;;;33.20;30.30;;;18.40;99.90;;;;;;5042674;28;20205;-56
2023/06/07 02:29:20;;;;;;;33.10;30.00;;;18.40;99.90;;;;;;5046445;28;20478;-55
2023/06/07 02:31:49;;;;;;;31.13;28.20;;;18.30;99.90;;;;;;5047241;28;20443;-55
2023/06/07 02:34:15;;;;;;;32.53;29.17;;;18.40;99.90;;;;;;5048964;28;20457;-55
2023/06/07 02:36:41;;;;;;;32.20;29.33;;;18.30;99.90;;;;;;5044034;28;20462;-55
2023/06/07 02:39:08;;;;;;;32.90;29.97;;;18.30;99.90;;;;;;5049268;28;20804;-55
2023/06/07 02:41:34;;;;;;;33.13;30.20;;;18.20;99.90;;;;;;5049132;28;20688;-56
2023/06/07 02:43:59;;;;;;;31.73;28.60;;;18.30;99.90;;;;;;5047411;28;21007;-56
2023/06/07 02:46:25;;;;;;;31.53;28.37;;;18.30;99.90;;;;;;5048679;28;20499;-56
2023/06/07 02:48:51;;;;;;;32.30;29.33;;;18.30;99.90;;;;;;5042565;28;20676;-56
2023/06/07 02:51:17;;;;;;;31.63;28.30;;;18.30;99.90;;;;;;5048029;28;20562;-55
2023/06/07 02:53:44;;;;;;;33.37;30.10;;;18.40;99.90;;;;;;5048083;28;20193;-55
2023/06/07 02:56:11;;;;;;;33.80;30.70;;;18.40;99.90;;;;;;5049726;28;20450;-55
2023/06/07 02:58:37;;;;;;;32.70;29.40;;;18.30;99.90;;;;;;5047352;28;20489;-56
2023/06/07 03:01:07;;;;;;;32.77;29.87;;;18.20;99.90;;;;;;5044147;28;20458;-55
2023/06/07 03:03:36;;;;;;;32.10;29.20;;;18.20;99.90;;;;;;5043767;28;20262;-55
2023/06/07 03:06:04;;;;;;;32.20;29.40;;;18.30;99.90;;;;;;5046711;28;20518;-56
2023/06/07 03:08:30;;;;;;;33.13;30.03;;;18.30;99.90;;;;;;5046925;28;20469;-55
2023/06/07 03:10:55;;;;;;;31.73;28.80;;;18.40;99.90;;;;;;5047833;28;20479;-55
2023/06/07 03:13:21;;;;;;;31.30;28.47;;;18.40;99.90;;;;;;5047601;28;20461;-55
2023/06/07 03:15:47;;;;;;;30.43;27.73;;;18.40;99.90;;;;;;5045198;28;20188;-54
2023/06/07 03:18:15;;;;;;;32.07;29.07;;;18.40;99.90;;;;;;5046487;28;20180;-55
2023/06/07 03:20:41;;;;;;;30.57;27.77;;;18.50;99.90;;;;;;5044744;28;20443;-56
2023/06/07 03:23:07;;;;;;;32.27;29.17;;;18.50;99.90;;;;;;5048474;28;20455;-56
2023/06/07 03:25:35;;;;;;;30.90;28.20;;;18.50;99.90;;;;;;5046197;28;20424;-54
2023/06/07 03:28:01;;;;;;;31.33;28.23;;;18.60;99.90;;;;;;5047949;28;20185;-56
2023/06/07 03:30:26;;;;;;;31.00;27.70;;;18.60;99.90;;;;;;5047911;28;20473;-56
2023/06/07 03:32:52;;;;;;;28.90;26.40;;;18.70;93.90;;;;;;5043917;28;20713;-55
2023/06/07 03:35:18;;;;;;;27.23;24.70;;;18.70;84.40;;;;;;5046349;28;20189;-56
2023/06/07 03:37:44;;;;;;;27.73;25.33;;;18.80;66.80;;;;;;5050968;28;20185;-55
2023/06/07 03:40:10;;;;;;;27.90;25.43;;;18.80;43.90;;;;;;5046399;28;20822;-55
2023/06/07 03:42:36;;;;;;;28.77;26.37;;;18.80;31.80;;;;;;5048149;28;20654;-55
2023/06/07 03:45:02;;;;;;;28.70;25.90;;;19.00;13.60;;;;;;5047477;28;20445;-56
2023/06/07 03:47:28;;;;;;;27.17;24.77;;;18.90;2.00;;;;;;5044609;28;20191;-55
2023/06/07 03:49:53;;;;;;;26.20;23.80;;;18.60;6.50;;;;;;5044120;28;20736;-56
2023/06/07 03:52:19;;;;;;;26.10;23.80;;;19.10;1.00;;;;;;5047195;28;20270;-56
2023/06/07 03:54:45;;;;;;;25.97;23.43;;;19.10;1.00;;;;;;5045875;28;20184;-55
2023/06/07 03:57:11;;;;;;;27.27;24.67;;;19.20;1.00;;;;;;5045625;28;20261;-55
2023/06/07 03:59:36;;;;;;;27.57;24.97;;;19.20;1.00;;;;;;5045501;28;20228;-55
2023/06/07 04:02:03;;;;;;;27.73;25.27;;;19.20;1.00;;;;;;5042946;28;20188;-55
2023/06/07 04:04:32;;;;;;;27.10;24.90;;;19.20;1.00;;;;;;5042196;28;20366;-55
2023/06/07 04:06:58;;;;;;;28.63;26.00;;;19.20;1.00;;;;;;5044746;28;20813;-56
2023/06/07 04:09:24;;;;;;;26.87;24.17;;;19.20;1.00;;;;;;5044175;28;20476;-55
2023/06/07 04:11:50;;;;;;;27.10;24.80;;;19.30;1.00;;;;;;5047462;28;20446;-54
2023/06/07 04:14:16;;;;;;;26.60;24.30;;;19.30;1.00;;;;;;5037905;28;20221;-55
2023/06/07 04:16:42;;;;;;;27.20;24.90;;;19.40;1.00;;;;;;5046290;28;20530;-55
2023/06/07 04:19:08;;;;;;;27.20;24.80;;;19.50;1.00;;;;;;5043974;28;20458;-55
2023/06/07 04:21:34;;;;;;;25.47;23.10;;;19.60;1.00;;;;;;5044914;28;20450;-55
2023/06/07 04:24:00;;;;;;;24.07;21.60;;;19.60;1.00;;;;;;5044031;28;20200;-55
2023/06/07 04:26:29;;;;;;;28.20;25.63;;;19.70;1.00;;;;;;5045646;28;20455;-56
2023/06/07 04:28:56;;;;;;;22.60;20.70;;;19.80;1.00;;;;;;5045902;28;20471;-55
2023/06/07 04:31:22;;;;;;;23.63;21.13;;;20.10;1.00;;;;;;5046210;28;20446;-55
2023/06/07 04:33:48;;;;;;;23.50;21.50;;;20.10;1.00;;;;;;5041829;28;20610;-55
2023/06/07 04:36:14;;;;;;;24.93;22.80;;;20.30;1.00;;;;;;5041258;28;20885;-55
2023/06/07 04:38:39;;;;;;;22.40;20.40;;;20.40;1.00;;;;;;5045804;28;20339;-58
2023/06/07 04:41:08;;;;;;;22.03;20.20;;;20.50;1.00;;;;;;5044406;28;20527;-56
2023/06/07 04:43:36;;;;;;;23.57;21.40;;;20.50;1.00;;;;;;5044411;28;20195;-57
2023/06/07 04:46:02;;;;;;;23.40;21.40;;;20.50;1.00;;;;;;5046555;28;20451;-56
2023/06/07 04:48:27;;;;;;;23.37;21.50;;;20.50;1.00;;;;;;5038914;28;20458;-57
2023/06/07 04:51:03;;;;;;;22.83;20.80;;;20.60;1.00;;;;;;5043820;28;20557;-57
2023/06/07 04:53:34;;;;;;;23.30;21.30;;;20.70;1.00;;;;;;5043238;28;20822;-56
2023/06/07 04:55:59;;;;;;;23.03;20.93;;;20.60;1.00;;;;;;5044857;28;20474;-58
2023/06/07 04:58:25;;;;;;;23.27;21.23;;;20.50;1.00;;;;;;5043936;28;20547;-57
2023/06/07 05:00:51;;;;;;;23.27;21.40;;;20.50;1.00;;;;;;5046005;28;20309;-57
2023/06/07 05:03:21;;;;;;;23.93;21.67;;;20.40;1.00;;;;;;5045553;28;21183;-57
2023/06/07 05:05:49;;;;;;;22.77;20.97;;;20.40;1.00;;;;;;5047185;28;20179;-57
2023/06/07 05:08:18;;;;;;;21.60;19.70;;;20.30;1.00;;;;;;5050795;28;20754;-56
2023/06/07 05:10:44;;;;;;;23.97;21.77;;;20.20;1.00;;;;;;5048555;28;20455;-57
2023/06/07 05:13:10;;;;;;;23.10;21.10;;;20.20;1.00;;;;;;5045984;28;21012;-56
2023/06/07 05:15:36;;;;;;;21.60;19.80;;;20.40;1.00;;;;;;5045174;28;20479;-57
2023/06/07 05:18:02;;;;;;;21.80;19.80;;;20.30;1.00;;;;;;5050538;28;20193;-56
2023/06/07 05:20:28;;;;;;;24.10;22.00;;;20.40;1.00;;;;;;5047124;28;20457;-56
2023/06/07 05:22:54;;;;;;;23.10;21.20;;;20.40;1.00;;;;;;5042882;28;20477;-56
2023/06/07 05:25:20;;;;;;;23.70;21.50;;;20.40;1.00;;;;;;5047610;28;20952;-57
2023/06/07 05:27:49;;;;;;;23.60;21.30;;;20.50;1.00;;;;;;5057839;28;20453;-57
2023/06/07 05:30:15;;;;;;;24.13;22.13;;;20.60;1.00;;;;;;5060732;28;20979;-56
2023/06/07 05:32:41;;;;;;;24.10;22.10;;;20.80;1.00;;;;;;5055468;28;21821;-57
2023/06/07 05:35:07;;;;;;;24.87;22.70;;;20.80;1.00;;;;;;5051571;28;20448;-56
2023/06/07 05:37:32;;;;;;;22.73;20.83;;;20.80;1.00;;;;;;5050820;28;20249;-56
2023/06/07 05:39:58;;;;;;;22.57;20.60;;;20.80;1.00;;;;;;5044375;28;20452;-57
2023/06/07 05:42:24;;;;;;;25.40;22.90;;;20.70;1.00;;;;;;5050368;28;20652;-56
2023/06/07 05:44:50;;;;;;;23.63;21.17;;;21.10;1.00;;;;;;5052592;28;20200;-56
2023/06/07 05:47:16;;;;;;;23.63;21.47;;;21.10;1.00;;;;;;5055347;28;20668;-56
2023/06/07 05:49:46;;;;;;;24.10;22.10;;;21.10;1.00;;;;;;5049903;28;20471;-56
2023/06/07 05:52:13;;;;;;;22.53;20.53;;;21.30;1.00;;;;;;5052167;28;20443;-58
2023/06/07 05:54:46;;;;;;;23.27;21.40;;;21.40;1.00;;;;;;5051862;28;20929;-56
2023/06/07 05:57:12;;;;;;;22.80;21.07;;;21.50;1.00;;;;;;5048931;28;20450;-57
2023/06/07 05:59:38;;;;;;;24.47;22.27;;;21.50;1.00;;;;;;5052377;28;20493;-56
2023/06/07 06:02:03;;;;;;;22.00;20.20;;;21.60;1.00;;;;;;5049420;28;20189;-57
2023/06/07 06:04:29;;;;;;;23.00;20.90;;;21.70;1.00;;;;;;5050823;28;20197;-57
2023/06/07 06:06:54;;;;;;;23.13;21.23;;;21.80;1.00;;;;;;5051530;28;20201;-56
2023/06/07 06:09:21;;;;;;;19.93;18.20;;;22.00;1.00;;;;;;5052883;28;20210;-57
2023/06/07 06:11:47;;;;;;;22.27;20.33;;;22.10;1.00;;;;;;5051322;28;20189;-57
2023/06/07 06:14:13;;;;;;;22.03;20.03;;;22.10;1.00;;;;;;5052589;28;20480;-56
2023/06/07 06:16:38;;;;;;;21.30;19.60;;;22.10;1.00;;;;;;5052982;28;20503;-57
2023/06/07 06:19:04;;;;;;;22.93;21.00;;;22.20;1.00;;;;;;5052939;28;20187;-56
2023/06/07 06:21:30;;;;;;;23.03;21.03;;;22.30;1.00;;;;;;5062991;28;20321;-56
2023/06/07 06:23:55;;;;;;;21.77;20.00;;;22.30;1.00;;;;;;5053116;28;20220;-56
2023/06/07 06:26:21;;;;;;;22.30;20.50;;;22.40;1.00;;;;;;5052948;28;20189;-57
2023/06/07 06:28:47;;;;;;;20.10;18.60;;;22.50;1.00;;;;;;5049227;28;20799;-55
2023/06/07 06:31:13;;;;;;;21.33;19.63;;;22.80;1.00;;;;;;5056212;28;20531;-55
2023/06/07 06:33:38;;;;;;;21.27;19.37;;;23.10;1.00;;;;;;5054291;28;20206;-56
2023/06/07 06:36:04;;;;;;;20.50;18.80;;;23.10;1.00;;;;;;5055207;28;20614;-56
2023/06/07 06:38:30;;;;;;;21.77;19.97;;;23.10;1.00;;;;;;5054331;28;20216;-57
2023/06/07 06:40:55;;;;;;;23.00;21.10;;;22.90;1.00;;;;;;5050652;28;20196;-57
2023/06/07 06:43:21;;;;;;;22.43;20.53;;;22.70;1.00;;;;;;5062156;28;20210;-56
2023/06/07 06:45:47;;;;;;;21.80;20.10;;;22.60;1.00;;;;;;5048006;28;20186;-55
2023/06/07 06:48:12;;;;;;;22.63;20.70;;;22.70;1.00;;;;;;5050128;28;20188;-56
2023/06/07 06:50:38;;;;;;;21.07;19.37;;;22.70;1.00;;;;;;5048983;28;20214;-57
2023/06/07 06:53:04;;;;;;;22.30;20.70;;;22.90;1.00;;;;;;5047847;28;20194;-56
2023/06/07 06:55:30;;;;;;;21.73;19.90;;;22.80;1.00;;;;;;5054004;28;20189;-58
2023/06/07 06:57:56;;;;;;;24.47;22.17;;;22.50;1.00;;;;;;5061222;28;20193;-56
2023/06/07 07:00:23;;;;;;;23.53;21.53;;;22.60;1.00;;;;;;5052907;28;20627;-57
2023/06/07 07:02:49;;;;;;;22.00;20.40;;;22.10;1.00;;;;;;5056001;28;20195;-56
2023/06/07 07:05:15;;;;;;;24.50;22.30;;;22.00;1.00;;;;;;5047470;28;20463;-55
2023/06/07 07:07:41;;;;;;;23.00;21.10;;;21.90;1.00;;;;;;5058738;28;20540;-56
2023/06/07 07:10:07;;;;;;;25.30;23.13;;;22.10;1.00;;;;;;5039927;28;20615;-56
2023/06/07 07:12:33;;;;;;;25.00;22.80;;;22.20;1.00;;;;;;5060804;28;20518;-54
2023/06/07 07:14:59;;;;;;;24.13;22.23;;;22.20;1.00;;;;;;5053005;28;21015;-55
2023/06/07 07:17:24;;;;;;;24.43;22.07;;;22.20;1.00;;;;;;5054016;28;20189;-57
2023/06/07 07:19:50;;;;;;;24.97;22.90;;;22.30;1.00;;;;;;5040945;28;20188;-56
2023/06/07 07:22:15;;;;;;;26.90;24.37;;;22.40;1.00;;;;;;5043579;28;20190;-56
2023/06/07 07:24:41;;;;;;;23.43;21.53;;;22.50;1.00;;;;;;5050577;28;20196;-55
2023/06/07 07:27:07;;;;;;;22.03;20.33;;;22.60;1.00;;;;;;5046312;28;20193;-55
2023/06/07 07:29:33;;;;;;;23.07;21.10;;;22.50;1.00;;;;;;5048295;28;20222;-56
2023/06/07 07:31:59;;;;;;;23.57;21.67;;;22.80;1.00;;;;;;5044264;28;20459;-55
2023/06/07 07:34:26;;;;;;;22.43;20.70;;;23.00;1.00;;;;;;5043014;28;20546;-56
2023/06/07 07:36:51;;;;;;;26.70;24.53;;;23.20;1.00;;;;;;5047873;28;20186;-57
2023/06/07 07:39:17;;;;;;;24.30;22.10;;;23.40;1.00;;;;;;5047247;28;20453;-55
2023/06/07 07:41:43;;;;;;;24.67;22.47;;;23.50;1.00;;;;;;5049470;28;20277;-55
2023/06/07 07:44:09;;;;;;;25.23;23.10;;;23.70;1.00;;;;;;5045007;28;20960;-56
2023/06/07 07:46:38;;;;;;;23.90;21.83;;;23.80;1.00;;;;;;5054923;28;20189;-56
2023/06/07 07:49:03;;;;;;;21.53;19.73;;;23.70;1.00;;;;;;5048170;28;20291;-55
2023/06/07 07:51:29;;;;;;;24.47;22.30;;;23.70;1.00;;;;;;5040463;28;20527;-56
2023/06/07 07:53:56;;;;;;;22.60;20.60;;;23.70;1.00;;;;;;5046120;28;20200;-57
2023/06/07 07:56:22;;;;;;;21.13;19.50;;;23.80;1.00;;;;;;5045804;28;20340;-57
2023/06/07 07:58:49;;;;;;;23.37;21.33;;;24.00;1.00;;;;;;5042013;28;20455;-56
2023/06/07 08:01:22;;;;;;;21.73;20.13;;;23.80;1.00;;;;;;5043379;28;20457;-55
2023/06/07 08:03:48;;;;;;;23.27;20.83;;;24.00;1.00;;;;;;5046070;28;20456;-57
2023/06/07 08:06:14;;;;;;;25.87;23.77;;;24.30;1.00;;;;;;5044059;28;20512;-56
2023/06/07 08:08:40;;;;;;;22.80;20.93;;;24.40;1.00;;;;;;5047284;28;20619;-55
2023/06/07 08:11:05;;;;;;;22.90;20.67;;;24.60;1.00;;;;;;5042705;28;21001;-56
2023/06/07 08:13:31;;;;;;;20.83;19.10;;;24.70;1.00;;;;;;5046515;28;20234;-57
2023/06/07 08:15:57;;;;;;;21.90;20.03;;;24.70;1.00;;;;;;5047373;28;20202;-57
2023/06/07 08:18:22;;;;;;;20.30;18.70;;;24.50;1.00;;;;;;5046324;28;20442;-56
2023/06/07 08:20:48;;;;;;;20.50;18.83;;;24.80;1.00;;;;;;5044073;28;20194;-58
2023/06/07 08:23:14;;;;;;;23.57;21.67;;;25.30;1.00;;;;;;5045426;28;20195;-57
2023/06/07 08:25:40;;;;;;;22.77;21.07;;;25.60;99.90;;;;;;5042668;28;20202;-57
2023/06/07 08:28:06;;;;;;;23.40;21.40;;;25.50;99.90;;;;;;5045058;28;20184;-57
2023/06/07 08:30:32;;;;;;;21.40;19.70;;;25.50;99.90;;;;;;5043973;28;20478;-56
2023/06/07 08:32:57;;;;;;;22.13;20.10;;;25.80;99.90;;;;;;5047009;28;20202;-58
2023/06/07 08:35:23;;;;;;;21.03;19.33;;;26.10;99.90;;;;;;5044189;28;20189;-56
2023/06/07 08:37:49;;;;;;;21.93;20.23;;;26.20;99.90;;;;;;5046613;28;20191;-56
2023/06/07 08:40:19;;;;;;;21.43;19.67;;;26.00;99.90;;;;;;5045542;28;20450;-55
2023/06/07 08:42:45;;;;;;;24.57;22.60;;;26.00;99.90;;;;;;5041388;28;20263;-56
2023/06/07 08:45:11;;;;;;;23.70;21.80;;;25.50;99.90;;;;;;5047667;28;20449;-57
2023/06/07 08:47:39;;;;;;;21.70;19.97;;;25.60;99.90;;;;;;5042469;28;20453;-56
2023/06/07 08:50:07;;;;;;;21.77;20.07;;;26.00;99.90;;;;;;5041546;28;20445;-57
2023/06/07 08:52:39;;;;;;;21.80;20.10;;;26.30;99.90;;;;;;5044049;28;20445;-58
2023/06/07 08:55:10;;;;;;;21.43;19.60;;;26.40;99.90;;;;;;5041343;28;20555;-55
2023/06/07 08:57:36;;;;;;;23.60;21.43;;;26.20;99.90;;;;;;5047325;28;20515;-56
2023/06/07 09:00:10;;;;;;;24.53;22.57;;;26.00;99.90;;;;;;5046325;28;20496;-59
2023/06/07 09:02:37;;;;;;;21.37;19.70;;;25.80;99.90;;;;;;5050158;28;20798;-56
2023/06/07 09:05:05;;;;;;;21.27;19.47;;;25.70;99.90;;;;;;5046850;28;20948;-57
2023/06/07 09:07:32;;;;;;;22.10;20.20;;;25.80;99.90;;;;;;5044371;28;20457;-54
2023/06/07 09:09:57;;;;;;;22.97;21.20;;;25.40;99.90;;;;;;5050421;28;20632;-56
2023/06/07 09:12:23;;;;;;;20.67;18.97;;;25.10;99.90;;;;;;5044255;28;21007;-55
2023/06/07 09:14:49;;;;;;;22.10;20.30;;;25.40;99.90;;;;;;5042793;28;20671;-56
2023/06/07 09:17:15;;;;;;;22.23;20.17;;;25.40;99.90;;;;;;5040100;28;20191;-57
2023/06/07 09:19:42;;;;;;;24.90;22.80;;;25.70;99.90;;;;;;5048536;28;20970;-57
2023/06/07 09:22:13;;;;;;;20.67;18.83;;;26.10;99.90;;;;;;5049164;28;20468;-58
2023/06/07 09:24:40;;;;;;;22.60;20.73;;;25.90;99.90;;;;;;5047898;28;20513;-55
2023/06/07 09:27:08;;;;;;;21.70;20.00;;;25.60;99.90;;;;;;5042347;28;20967;-56
2023/06/07 09:29:41;;;;;;;22.50;20.80;;;25.50;99.90;;;;;;5047370;28;20787;-56
2023/06/07 09:32:21;;;;;;;22.80;21.07;;;25.90;99.90;;;;;;5051466;28;20420;-55
2023/06/07 09:34:49;;;;;;;24.20;22.13;;;26.20;99.90;;;;;;5049232;28;20453;-56
2023/06/07 09:37:17;;;;;;;19.23;17.73;;;25.70;99.90;;;;;;5048544;28;20521;-56
2023/06/07 09:39:43;;;;;;;20.23;18.60;;;25.70;99.90;;;;;;5052525;28;20449;-56
2023/06/07 09:42:16;;;;;;;19.67;18.27;;;26.30;99.90;;;;;;5048578;28;20994;-57
2023/06/07 09:44:42;;;;;;;20.23;18.70;;;26.60;99.90;;;;;;5048151;28;20187;-58
2023/06/07 09:47:21;;;;;;;20.97;19.20;;;26.90;99.90;;;;;;5050978;28;20439;-58
2023/06/07 09:49:47;;;;;;;22.90;21.20;;;27.00;99.90;;;;;;5051417;28;20824;-57
2023/06/07 09:52:14;;;;;;;24.47;22.57;;;27.10;99.90;;;;;;5050235;28;20445;-56
2023/06/07 09:54:42;;;;;;;21.33;19.63;;;26.80;99.90;;;;;;5050920;28;20188;-56
2023/06/07 09:57:23;;;;;;;23.30;21.60;;;26.90;99.90;;;;;;5050508;28;20956;-57
2023/06/07 09:59:58;;;;;;;23.17;21.17;;;27.10;99.90;;;;;;5050693;28;20463;-57
2023/06/07 10:02:28;;;;;;;21.87;20.10;;;27.30;99.90;;;;;;5051480;28;20484;-56
2023/06/07 10:04:56;;;;;;;21.93;20.13;;;27.60;99.90;;;;;;5050798;28;20441;-56
2023/06/07 10:07:23;;;;;;;21.80;20.10;;;27.30;99.90;;;;;;5048550;28;20500;-57
2023/06/07 10:09:53;;;;;;;21.40;19.70;;;27.60;99.90;;;;;;5044444;28;20543;-57
2023/06/07 10:12:26;;;;;;;23.07;21.40;;;27.70;99.90;;;;;;5040742;28;20457;-56
2023/06/07 10:14:54;;;;;;;22.80;20.90;;;27.60;99.90;;;;;;5049340;28;20447;-56
2023/06/07 10:17:25;;;;;;;22.10;20.40;;;27.60;99.90;;;;;;5048206;28;21028;-55
2023/06/07 10:19:52;;;;;;;21.07;19.37;;;27.50;99.90;;;;;;5044583;28;20438;-57
2023/06/07 10:22:26;;;;;;;20.77;18.80;;;27.60;99.90;;;;;;5048862;28;20819;-56
2023/06/07 10:25:04;;;;;;;20.30;18.87;;;27.60;99.90;;;;;;5050325;28;20462;-55
2023/06/07 10:27:38;;;;;;;17.50;16.00;;;27.50;99.90;;;;;;5048550;28;21030;-56
2023/06/07 10:30:12;;;;;;;17.03;15.73;;;27.30;99.90;;;;;;5052086;28;20441;-57
2023/06/07 10:32:41;;;;;;;16.57;15.20;;;27.40;99.90;;;;;;5049063;28;20477;-57
2023/06/07 10:35:09;;;;;;;16.80;15.30;;;27.70;99.90;;;;;;5047221;28;20417;-56
2023/06/07 10:37:40;;;;;;;16.13;14.77;;;27.80;99.90;;;;;;5055590;28;20446;-57
2023/06/07 10:40:14;;;;;;;17.70;15.93;;;28.30;99.90;;;;;;5048494;28;20949;-57
2023/06/07 10:42:43;;;;;;;16.23;14.93;;;28.50;99.90;;;;;;5053430;28;20444;-56
2023/06/07 10:45:15;;;;;;;16.10;14.80;;;28.40;99.90;;;;;;5049187;28;20944;-56
2023/06/07 10:47:45;;;;;;;15.23;14.00;;;28.10;99.90;;;;;;5047235;28;20451;-57
2023/06/07 10:50:27;;;;;;;13.43;12.33;;;28.00;99.90;;;;;;5052864;28;20447;-58
2023/06/07 10:52:57;;;;;;;13.83;12.67;;;28.10;99.90;;;;;;5049253;28;20444;-55
2023/06/07 10:55:31;;;;;;;13.67;12.50;;;27.90;99.90;;;;;;5048505;28;20432;-58
2023/06/07 10:57:58;;;;;;;11.63;10.57;;;28.10;99.90;;;;;;5050257;28;20442;-57
2023/06/07 11:00:28;;;;;;;13.37;12.33;;;28.20;99.90;;;;;;5048449;28;21022;-58
2023/06/07 11:03:12;;;;;;;13.70;12.53;;;28.30;99.90;;;;;;5051452;28;20427;-56
2023/06/07 11:05:53;;;;;;;12.90;11.90;;;28.50;99.90;;;;;;5049718;28;20514;-58
2023/06/07 11:08:27;;;;;;;14.50;13.27;;;28.80;99.90;;;;;;5052826;28;20986;-57
2023/06/07 11:10:58;;;;;;;13.10;12.07;;;28.80;99.90;;;;;;5048886;28;20461;-56
2023/06/07 11:13:27;;;;;;;12.83;11.70;;;28.60;99.90;;;;;;5046168;28;20500;-56
2023/06/07 11:16:13;;;;;;;12.27;11.20;;;28.30;99.90;;;;;;5049378;28;20444;-57
2023/06/07 11:19:09;;;;;;;12.70;11.53;;;28.00;99.90;;;;;;5048746;28;20512;-56
2023/06/07 11:21:54;;;;;;;12.50;11.50;;;27.60;99.90;;;;;;5048018;28;20460;-57
2023/06/07 11:24:20;;;;;;;13.63;12.23;;;27.40;99.90;;;;;;5048190;28;20446;-59
2023/06/07 11:26:50;;;;;;;13.50;12.50;;;27.10;99.90;;;;;;5046845;28;20896;-56
2023/06/07 11:29:19;;;;;;;14.37;13.27;;;27.00;99.90;;;;;;5047922;28;20834;-57
2023/06/07 11:31:56;;;;;;;12.87;11.77;;;27.00;99.90;;;;;;5046906;28;20446;-57
2023/06/07 11:34:22;;;;;;;13.47;12.27;;;27.00;99.90;;;;;;5048856;28;20467;-55
2023/06/07 11:36:48;;;;;;;12.63;11.60;;;27.00;99.90;;;;;;5048322;28;20930;-57
2023/06/07 11:39:17;;;;;;;12.03;11.13;;;27.00;99.90;;;;;;5048751;28;20263;-58
2023/06/07 11:41:43;;;;;;;11.83;10.90;;;26.90;99.90;;;;;;5047385;28;20196;-57
2023/06/07 11:44:10;;;;;;;11.90;10.70;;;27.00;99.90;;;;;;5049137;28;20426;-56
2023/06/07 11:46:36;;;;;;;11.50;10.50;;;27.00;99.90;;;;;;5048005;28;20449;-56
2023/06/07 11:49:11;;;;;;;9.83;9.03;;;27.10;99.90;;;;;;5045918;28;20508;-57
2023/06/07 11:51:38;;;;;;;10.20;9.40;;;27.20;99.90;;;;;;5047165;28;20542;-55
2023/06/07 11:54:04;;;;;;;10.20;9.30;;;27.30;99.90;;;;;;5048608;28;20449;-57
2023/06/07 11:56:30;;;;;;;9.50;8.80;;;27.50;99.90;;;;;;5045146;28;20455;-57
2023/06/07 11:58:58;;;;;;;9.90;9.00;;;27.60;99.90;;;;;;5046318;28;20231;-57
2023/06/07 12:01:25;;;;;;;10.50;9.57;;;27.80;99.90;;;;;;5048925;28;20454;-57
2023/06/07 12:03:51;;;;;;;10.50;9.60;;;27.90;99.90;;;;;;5048179;28;21021;-56
2023/06/07 12:06:18;;;;;;;8.90;8.10;;;28.10;99.90;;;;;;5047184;28;20936;-59
2023/06/07 12:08:49;;;;;;;9.87;9.07;;;28.40;99.90;;;;;;5045298;28;20433;-56
2023/06/07 12:11:15;;;;;;;9.30;8.50;;;28.40;99.90;;;;;;5043708;28;20502;-57
2023/06/07 12:13:40;;;;;;;10.60;9.70;;;28.50;99.90;;;;;;5051711;28;20841;-58
2023/06/07 12:16:08;;;;;;;9.73;9.00;;;28.60;99.90;;;;;;5048403;28;20758;-58
2023/06/07 12:18:38;;;;;;;11.47;10.53;;;28.60;99.90;;;;;;5049595;28;20193;-56
2023/06/07 12:21:08;;;;;;;10.17;9.47;;;28.50;99.90;;;;;;5038126;28;20461;-58
2023/06/07 12:23:44;;;;;;;10.63;9.60;;;28.60;99.90;;;;;;5045855;28;20536;-56
2023/06/07 12:26:11;;;;;;;10.93;10.03;;;28.70;99.90;;;;;;5042319;28;20455;-57
2023/06/07 12:28:39;;;;;;;11.00;10.10;;;29.00;99.90;;;;;;5048868;28;20483;-57
2023/06/07 12:31:14;;;;;;;10.30;9.47;;;29.30;99.90;;;;;;5044976;28;20424;-57
2023/06/07 12:33:50;;;;;;;10.53;9.77;;;29.40;99.90;;;;;;5039620;28;20435;-57